createdAt,value
2022-11-18T00:01:35.219Z,10.03
2022-11-18T00:04:02.361Z,9.53
2022-11-18T00:06:30.162Z,9.63
2022-11-18T00:08:58.858Z,9.97
2022-11-18T00:11:45.660Z,8.67
2022-11-18T00:14:23.404Z,9.30
2022-11-18T00:16:52.329Z,9.50
2022-11-18T00:19:24.435Z,9.00
2022-11-18T00:21:51.578Z,8.20
2022-11-18T00:24:18.813Z,8.23
2022-11-18T00:26:45.903Z,8.20
2022-11-18T00:29:13.123Z,12.17
2022-11-18T00:31:40.576Z,13.70
2022-11-18T00:34:07.824Z,13.77
2022-11-18T00:36:34.952Z,14.27
2022-11-18T00:39:02.071Z,14.30
2022-11-18T00:41:49.158Z,18.60
2022-11-18T00:44:16.388Z,29.70
2022-11-18T00:46:43.530Z,22.60
2022-11-18T00:49:10.633Z,20.77
2022-11-18T00:51:38.014Z,20.30
2022-11-18T00:54:05.144Z,19.77
2022-11-18T00:56:32.574Z,16.10
2022-11-18T00:58:59.724Z,15.07
2022-11-18T01:01:26.864Z,15.50
2022-11-18T01:03:54.029Z,14.70
2022-11-18T01:06:21.155Z,14.53
2022-11-18T01:08:48.347Z,13.90
2022-11-18T01:11:34.323Z,14.13
2022-11-18T01:14:01.452Z,14.10
2022-11-18T01:16:29.438Z,13.13
2022-11-18T01:18:56.575Z,13.00
2022-11-18T01:21:23.821Z,12.43
2022-11-18T01:23:50.906Z,11.83
2022-11-18T01:26:18.604Z,11.60
2022-11-18T01:28:45.994Z,12.67
2022-11-18T01:31:17.758Z,11.37
2022-11-18T01:33:45.448Z,10.03
2022-11-18T01:36:22.985Z,12.13
2022-11-18T01:38:50.391Z,11.87
2022-11-18T01:41:17.971Z,11.73
2022-11-18T01:43:54.456Z,11.30
2022-11-18T01:46:22.221Z,11.67
2022-11-18T01:48:51.306Z,12.27
2022-11-18T01:51:20.371Z,11.10
2022-11-18T01:53:49.567Z,11.40
2022-11-18T01:56:21.176Z,11.63
2022-11-18T01:58:50.825Z,12.20
2022-11-18T02:01:17.997Z,15.80
2022-11-18T02:03:45.802Z,17.90
2022-11-18T02:06:13.982Z,21.30
2022-11-18T02:08:42.047Z,20.77
2022-11-18T02:11:33.277Z,20.53
2022-11-18T02:14:01.548Z,20.20
2022-11-18T02:16:43.447Z,19.93
2022-11-18T02:19:33.969Z,18.50
2022-11-18T02:22:16.412Z,17.77
2022-11-18T02:24:43.525Z,13.53
2022-11-18T02:27:29.374Z,9.60
2022-11-18T02:29:59.230Z,10.67
2022-11-18T02:32:33.969Z,9.70
2022-11-18T02:35:04.060Z,10.30
2022-11-18T02:37:34.468Z,9.33
2022-11-18T02:40:08.394Z,7.67
2022-11-18T02:42:37.285Z,8.20
2022-11-18T02:45:06.767Z,7.10
2022-11-18T02:47:34.934Z,6.90
2022-11-18T02:50:10.090Z,7.60
2022-11-18T02:52:38.507Z,7.30
2022-11-18T02:55:08.476Z,7.07
2022-11-18T02:57:36.236Z,8.23
2022-11-18T03:00:04.357Z,7.90
2022-11-18T03:02:44.659Z,9.00
2022-11-18T03:05:17.931Z,8.17
2022-11-18T03:07:47.219Z,7.87
2022-11-18T03:10:14.410Z,8.13
2022-11-18T03:12:53.675Z,7.97
2022-11-18T03:15:23.527Z,8.17
2022-11-18T03:18:01.345Z,8.07
2022-11-18T03:20:31.695Z,8.67
2022-11-18T03:23:04.517Z,8.20
2022-11-18T03:25:37.435Z,8.40
2022-11-18T03:28:10.209Z,9.73
2022-11-18T03:30:39.387Z,9.53
2022-11-18T03:33:09.605Z,10.20
2022-11-18T03:35:37.621Z,9.07
2022-11-18T03:38:14.076Z,9.13
2022-11-18T03:40:43.608Z,8.63
2022-11-18T03:43:13.279Z,9.17
2022-11-18T03:45:46.223Z,9.67
2022-11-18T03:48:39.512Z,9.47
2022-11-18T03:51:08.947Z,9.57
2022-11-18T03:53:46.100Z,9.50
2022-11-18T03:56:22.753Z,9.63
2022-11-18T03:58:56.390Z,10.07
2022-11-18T04:01:30.237Z,10.17
2022-11-18T04:03:57.498Z,11.13
2022-11-18T04:06:32.696Z,10.50
2022-11-18T04:09:01.583Z,10.33
2022-11-18T04:11:51.168Z,11.17
2022-11-18T04:14:20.467Z,11.20
2022-11-18T04:16:50.644Z,11.07
2022-11-18T04:19:17.820Z,11.30
2022-11-18T04:21:44.895Z,10.77
2022-11-18T04:24:12.006Z,10.07
2022-11-18T04:26:39.127Z,10.57
2022-11-18T04:29:06.296Z,11.10
2022-11-18T04:31:33.422Z,10.80
2022-11-18T04:34:00.619Z,11.10
2022-11-18T04:36:27.717Z,11.87
2022-11-18T04:38:55.108Z,11.30
2022-11-18T04:41:42.159Z,11.47
2022-11-18T04:44:13.151Z,10.73
2022-11-18T04:46:43.830Z,10.63
2022-11-18T04:49:11.850Z,10.97
2022-11-18T04:51:39.264Z,11.40
2022-11-18T04:54:06.476Z,10.43
2022-11-18T04:56:33.578Z,10.53
2022-11-18T04:59:01.275Z,11.30
2022-11-18T05:01:29.096Z,11.00
2022-11-18T05:03:56.315Z,11.93
2022-11-18T05:06:24.015Z,11.00
2022-11-18T05:08:51.139Z,11.10
2022-11-18T05:11:37.111Z,11.07
2022-11-18T05:14:04.273Z,12.33
2022-11-18T05:16:31.426Z,11.03
2022-11-18T05:18:58.567Z,12.33
2022-11-18T05:21:25.728Z,11.43
2022-11-18T05:23:52.848Z,10.87
2022-11-18T05:26:20.028Z,10.27
2022-11-18T05:28:47.373Z,10.70
2022-11-18T05:31:16.390Z,10.50
2022-11-18T05:33:43.819Z,10.37
2022-11-18T05:36:12.228Z,9.80
2022-11-18T05:38:39.372Z,9.30
2022-11-18T05:41:06.942Z,9.30
2022-11-18T05:43:34.376Z,9.03
2022-11-18T05:46:02.141Z,8.83
2022-11-18T05:48:29.329Z,9.30
2022-11-18T05:50:56.666Z,8.97
2022-11-18T05:53:24.999Z,8.93
2022-11-18T05:55:58.102Z,8.53
2022-11-18T05:58:25.295Z,9.10
2022-11-18T06:00:55.589Z,8.73
2022-11-18T06:03:30.714Z,9.23
2022-11-18T06:06:00.647Z,9.13
2022-11-18T06:08:29.714Z,9.43
2022-11-18T06:10:56.912Z,9.13
2022-11-18T06:13:26.619Z,8.67
2022-11-18T06:15:53.978Z,9.13
2022-11-18T06:18:28.251Z,9.00
2022-11-18T06:20:57.306Z,9.80
2022-11-18T06:23:24.565Z,8.80
2022-11-18T06:25:51.688Z,8.07
2022-11-18T06:28:19.331Z,7.20
2022-11-18T06:30:46.411Z,6.00
2022-11-18T06:33:13.538Z,5.80
2022-11-18T06:35:40.638Z,5.83
2022-11-18T06:38:07.745Z,6.00
2022-11-18T06:40:35.275Z,6.10
2022-11-18T06:43:27.577Z,6.40
2022-11-18T06:46:13.437Z,5.73
2022-11-18T06:48:40.557Z,5.60
2022-11-18T06:51:08.264Z,5.43
2022-11-18T06:53:35.682Z,5.70
2022-11-18T06:56:09.639Z,5.07
2022-11-18T06:58:36.809Z,4.93
2022-11-18T07:01:17.315Z,5.33
2022-11-18T07:03:45.751Z,4.63
2022-11-18T07:06:14.115Z,4.20
2022-11-18T07:08:41.953Z,3.43
2022-11-18T07:11:10.647Z,4.17
2022-11-18T07:13:43.185Z,4.13
2022-11-18T07:16:15.298Z,4.43
2022-11-18T07:18:42.951Z,3.97
2022-11-18T07:21:14.503Z,3.30
2022-11-18T07:23:41.664Z,3.33
2022-11-18T07:26:09.265Z,3.20
2022-11-18T07:28:36.801Z,3.10
2022-11-18T07:31:08.382Z,3.53
2022-11-18T07:33:36.266Z,2.90
2022-11-18T07:36:10.987Z,2.93
2022-11-18T07:38:38.317Z,2.80
2022-11-18T07:41:09.807Z,2.60
2022-11-18T07:43:37.577Z,2.10
2022-11-18T07:46:24.997Z,1.97
2022-11-18T07:48:53.093Z,1.90
2022-11-18T07:51:21.692Z,1.60
2022-11-18T07:53:48.809Z,1.50
2022-11-18T07:56:16.314Z,1.87
2022-11-18T07:58:43.758Z,1.70
2022-11-18T08:01:18.034Z,1.70
2022-11-18T08:03:45.732Z,1.40
2022-11-18T08:06:14.011Z,1.20
2022-11-18T08:08:41.435Z,1.20
2022-11-18T08:11:09.579Z,1.30
2022-11-18T08:13:37.243Z,1.20
2022-11-18T08:16:05.145Z,1.13
2022-11-18T08:18:32.653Z,1.33
2022-11-18T08:21:03.438Z,1.27
2022-11-18T08:23:34.074Z,1.47
2022-11-18T08:26:11.757Z,1.20
2022-11-18T08:28:39.140Z,1.63
2022-11-18T08:31:13.891Z,1.80
2022-11-18T08:33:41.469Z,1.83
2022-11-18T08:36:09.753Z,1.77
2022-11-18T08:38:36.950Z,1.43
2022-11-18T08:41:05.991Z,1.40
2022-11-18T08:43:33.110Z,1.50
2022-11-18T08:46:00.258Z,1.53
2022-11-18T08:48:27.370Z,1.90
2022-11-18T08:50:54.954Z,1.47
2022-11-18T08:53:22.099Z,1.50
2022-11-18T08:55:53.060Z,1.50
2022-11-18T08:58:24.205Z,1.63
2022-11-18T09:00:51.319Z,1.63
2022-11-18T09:03:18.403Z,1.67
2022-11-18T09:05:45.527Z,1.30
2022-11-18T09:08:12.666Z,1.40
2022-11-18T09:10:39.788Z,1.30
2022-11-18T09:13:40.053Z,1.40
2022-11-18T09:15:54.157Z,1.27
2022-11-18T09:18:21.639Z,1.50
2022-11-18T09:20:58.861Z,1.53
2022-11-18T09:23:25.969Z,1.50
2022-11-18T09:26:06.927Z,1.50
2022-11-18T09:28:34.191Z,1.50
2022-11-18T09:31:05.547Z,1.90
2022-11-18T09:33:32.649Z,1.70
2022-11-18T09:35:59.760Z,1.73
2022-11-18T09:38:26.960Z,2.10
2022-11-18T09:40:54.049Z,1.70
2022-11-18T09:43:39.535Z,1.80
2022-11-18T09:46:24.863Z,1.50
2022-11-18T09:49:10.910Z,2.17
2022-11-18T09:51:40.707Z,2.00
2022-11-18T09:54:12.926Z,2.20
2022-11-18T09:56:41.657Z,2.73
2022-11-18T09:59:12.280Z,2.50
2022-11-18T10:01:39.463Z,2.43
2022-11-18T10:04:06.637Z,2.33
2022-11-18T10:06:34.345Z,2.20
2022-11-18T10:09:01.451Z,2.00
2022-11-18T10:11:31.840Z,2.13
2022-11-18T10:14:07.722Z,2.30
2022-11-18T10:16:42.210Z,2.10
2022-11-18T10:19:27.901Z,2.07
2022-11-18T10:21:54.991Z,2.40
2022-11-18T10:24:22.225Z,2.20
2022-11-18T10:26:55.089Z,1.80
2022-11-18T10:29:23.711Z,2.20
2022-11-18T10:32:08.072Z,2.40
2022-11-18T10:34:36.533Z,1.93
2022-11-18T10:37:08.441Z,2.17
2022-11-18T10:39:49.960Z,1.50
2022-11-18T10:42:21.565Z,1.60
2022-11-18T10:44:48.657Z,1.30
2022-11-18T10:47:16.098Z,1.60
2022-11-18T10:49:43.493Z,1.60
2022-11-18T10:52:11.745Z,2.47
2022-11-18T10:54:39.229Z,2.00
2022-11-18T10:57:18.914Z,1.70
2022-11-18T10:59:47.029Z,1.40
2022-11-18T11:02:18.807Z,1.57
2022-11-18T11:04:47.119Z,1.30
2022-11-18T11:07:33.384Z,1.40
2022-11-18T11:10:00.500Z,1.57
2022-11-18T11:12:29.573Z,1.73
2022-11-18T11:14:57.784Z,1.57
2022-11-18T11:17:30.946Z,1.50
2022-11-18T11:20:19.973Z,1.30
2022-11-18T11:22:47.170Z,1.20
2022-11-18T11:25:18.838Z,1.10
2022-11-18T11:30:38.803Z,1.10
2022-11-18T11:33:11.391Z,1.20
2022-11-18T11:35:51.926Z,1.30
2022-11-18T11:38:37.510Z,1.30
2022-11-18T11:41:11.897Z,1.37
2022-11-18T11:43:43.483Z,1.40
2022-11-18T11:46:10.691Z,1.10
2022-11-18T11:48:55.975Z,1.50
2022-11-18T11:51:28.938Z,1.00
2022-11-18T11:54:06.955Z,1.33
2022-11-18T11:56:49.784Z,1.00
2022-11-18T11:59:29.416Z,1.33
2022-11-18T12:01:56.501Z,1.03
2022-11-18T12:04:23.614Z,1.13
2022-11-18T12:06:53.024Z,1.60
2022-11-18T12:09:20.307Z,1.47
2022-11-18T12:11:52.360Z,1.10
2022-11-18T12:14:39.842Z,0.90
2022-11-18T12:17:16.160Z,1.00
2022-11-18T12:19:43.266Z,1.00
2022-11-18T12:22:10.435Z,1.00
2022-11-18T12:24:39.126Z,1.10
2022-11-18T12:27:08.135Z,0.90
2022-11-18T12:29:43.250Z,1.03
2022-11-18T12:32:28.933Z,0.97
2022-11-18T12:35:16.038Z,1.20
2022-11-18T12:37:43.950Z,1.20
2022-11-18T12:40:11.931Z,1.30
2022-11-18T12:42:57.593Z,1.30
2022-11-18T12:45:43.439Z,1.30
2022-11-18T12:48:29.453Z,1.43
2022-11-18T12:50:57.492Z,1.33
2022-11-18T12:53:30.622Z,1.23
2022-11-18T12:55:58.537Z,1.53
2022-11-18T12:58:26.560Z,1.70
2022-11-18T13:01:07.705Z,1.80
2022-11-18T13:03:35.015Z,1.23
2022-11-18T13:06:04.576Z,1.63
2022-11-18T13:08:31.802Z,54.13
2022-11-18T13:11:37.434Z,19.63
2022-11-18T13:14:24.555Z,2.50
2022-11-18T13:17:12.212Z,2.33
2022-11-18T13:19:39.323Z,2.37
2022-11-18T13:22:35.493Z,2.60
2022-11-18T13:25:02.852Z,3.50
2022-11-18T13:27:51.013Z,3.33
2022-11-18T13:30:18.391Z,2.60
2022-11-18T13:32:46.229Z,2.40
2022-11-18T13:35:18.293Z,2.03
2022-11-18T13:37:50.484Z,3.07
2022-11-18T13:40:28.376Z,2.10
2022-11-18T13:42:56.092Z,2.50
2022-11-18T13:45:29.725Z,2.07
2022-11-18T13:48:07.065Z,2.43
2022-11-18T13:50:36.414Z,6.90
2022-11-18T13:53:14.910Z,4.83
2022-11-18T13:55:47.470Z,1.70
2022-11-18T13:58:20.317Z,2.30
2022-11-18T14:01:16.566Z,2.13
2022-11-18T14:03:50.636Z,3.23
2022-11-18T14:06:26.653Z,2.30
2022-11-18T14:09:04.486Z,2.20
2022-11-18T14:11:35.960Z,2.50
2022-11-18T14:14:03.139Z,2.10
2022-11-18T14:16:37.843Z,1.53
2022-11-18T14:19:05.592Z,2.70
2022-11-18T14:21:34.173Z,2.13
2022-11-18T14:24:01.976Z,2.23
2022-11-18T14:26:32.125Z,2.33
2022-11-18T14:29:00.380Z,2.27
2022-11-18T14:31:31.539Z,2.20
2022-11-18T14:34:05.503Z,2.80
2022-11-18T14:36:32.698Z,2.60
2022-11-18T14:41:46.910Z,2.73
2022-11-18T14:44:14.584Z,2.70
2022-11-18T14:46:43.020Z,2.80
2022-11-18T14:49:18.720Z,2.90
2022-11-18T14:51:46.930Z,2.73
2022-11-18T14:54:17.198Z,2.80
2022-11-18T14:56:48.630Z,3.00
2022-11-18T14:59:16.677Z,8.90
2022-11-18T15:01:44.487Z,8.83
2022-11-18T15:04:12.039Z,10.10
2022-11-18T15:06:39.981Z,13.57
2022-11-18T15:09:08.135Z,4.60
2022-11-18T15:11:35.789Z,5.60
2022-11-18T15:14:03.388Z,3.87
2022-11-18T15:16:31.416Z,4.40
2022-11-18T15:19:00.330Z,4.30
2022-11-18T15:21:28.014Z,5.40
2022-11-18T15:23:55.143Z,5.63
2022-11-18T15:26:23.290Z,4.20
2022-11-18T15:28:51.183Z,4.97
2022-11-18T15:31:18.700Z,4.87
2022-11-18T15:33:46.290Z,4.70
2022-11-18T15:36:14.376Z,4.40
2022-11-18T15:38:41.603Z,4.60
2022-11-18T15:41:13.602Z,4.83
2022-11-18T15:43:40.753Z,4.10
2022-11-18T15:46:09.686Z,2.77
2022-11-18T15:48:36.809Z,3.20
2022-11-18T15:51:08.859Z,2.87
2022-11-18T15:53:39.053Z,2.87
2022-11-18T15:56:21.474Z,2.47
2022-11-18T15:58:56.846Z,2.33
2022-11-18T16:01:24.534Z,3.20
2022-11-18T16:03:52.000Z,2.67
2022-11-18T16:06:19.343Z,4.07
2022-11-18T16:08:46.432Z,4.20
2022-11-18T16:11:35.945Z,2.43
2022-11-18T16:14:06.813Z,3.00
2022-11-18T16:16:34.606Z,4.30
2022-11-18T16:19:03.093Z,3.47
2022-11-18T16:21:30.787Z,3.90
2022-11-18T16:23:59.211Z,3.63
2022-11-18T16:26:26.680Z,5.07
2022-11-18T16:28:54.277Z,5.60
2022-11-18T16:31:40.135Z,7.70
2022-11-18T16:34:08.202Z,8.77
2022-11-18T16:36:35.882Z,10.67
2022-11-18T16:39:10.190Z,8.20
2022-11-18T16:41:37.849Z,3.87
2022-11-18T16:44:06.045Z,3.23
2022-11-18T16:46:34.061Z,3.80
2022-11-18T16:49:01.678Z,3.80
2022-11-18T16:51:30.479Z,3.17
2022-11-18T16:53:59.295Z,3.47
2022-11-18T16:56:27.633Z,2.70
2022-11-18T16:59:01.826Z,2.70
2022-11-18T17:01:29.824Z,2.90
2022-11-18T17:03:58.003Z,2.53
2022-11-18T17:06:25.529Z,3.17
2022-11-18T17:08:53.112Z,2.63
2022-11-18T17:11:20.621Z,3.37
2022-11-18T17:13:49.410Z,3.10
2022-11-18T17:16:19.519Z,3.00
2022-11-18T17:18:47.018Z,3.27
2022-11-18T17:21:17.827Z,2.97
2022-11-18T17:23:45.683Z,4.70
2022-11-18T17:26:13.492Z,6.10
2022-11-18T17:28:41.062Z,3.10
2022-11-18T17:31:09.349Z,9.83
2022-11-18T17:33:36.660Z,6.70
2022-11-18T17:36:05.562Z,6.43
2022-11-18T17:38:34.737Z,4.90
2022-11-18T17:41:01.798Z,5.27
2022-11-18T17:43:28.956Z,5.83
2022-11-18T17:45:56.918Z,9.23
2022-11-18T17:48:25.111Z,5.20
2022-11-18T17:50:52.557Z,6.70
2022-11-18T17:53:20.174Z,10.63
2022-11-18T17:55:47.678Z,7.10
2022-11-18T17:58:14.755Z,11.20
2022-11-18T18:00:41.883Z,6.93
2022-11-18T18:03:08.997Z,6.73
2022-11-18T18:05:36.091Z,8.03
2022-11-18T18:08:04.392Z,8.33
2022-11-18T18:10:31.523Z,7.60
2022-11-18T18:13:17.252Z,7.33
2022-11-18T18:15:44.418Z,7.57
2022-11-18T18:18:11.517Z,8.43
2022-11-18T18:20:39.185Z,7.60
2022-11-18T18:23:06.302Z,8.07
2022-11-18T18:25:34.305Z,8.47
2022-11-18T18:28:02.387Z,8.63
2022-11-18T18:30:29.486Z,9.17
2022-11-18T18:32:56.588Z,10.60
2022-11-18T18:35:23.685Z,9.83
2022-11-18T18:37:50.836Z,9.47
2022-11-18T18:40:18.275Z,9.53
2022-11-18T18:42:45.381Z,15.47
2022-11-18T20:29:00.253Z,8.90
2022-11-18T20:31:27.732Z,10.63
2022-11-18T20:33:55.690Z,12.57
2022-11-18T20:36:27.556Z,13.60
2022-11-18T20:38:55.712Z,13.80
2022-11-18T20:41:23.214Z,13.80
2022-11-18T20:43:50.340Z,15.67
2022-11-18T20:46:20.823Z,15.63
2022-11-18T20:48:48.673Z,15.80
2022-11-18T20:51:17.050Z,12.83
2022-11-18T20:53:44.322Z,10.00
2022-11-18T20:56:21.471Z,6.67
2022-11-18T20:58:48.666Z,6.27
2022-11-18T21:01:19.569Z,5.53
2022-11-18T21:03:52.739Z,6.87
2022-11-18T21:06:20.209Z,7.83
2022-11-18T21:08:47.331Z,4.93
2022-11-18T21:11:14.849Z,7.67
2022-11-18T21:14:01.040Z,4.10
2022-11-18T21:16:28.567Z,3.90
2022-11-18T21:18:55.797Z,3.80
2022-11-18T21:21:41.431Z,2.90
2022-11-18T21:24:08.844Z,3.13
2022-11-18T21:26:36.631Z,2.90
2022-11-18T21:29:05.144Z,2.80
2022-11-18T21:31:32.724Z,2.67
2022-11-18T21:34:00.137Z,2.67
2022-11-18T21:36:28.351Z,2.87
2022-11-18T21:38:55.673Z,2.73
2022-11-18T21:41:22.775Z,2.90
2022-11-18T21:44:04.904Z,3.43
2022-11-18T21:46:34.228Z,3.27
2022-11-18T21:49:01.928Z,2.93
2022-11-18T21:51:31.311Z,3.33
2022-11-18T21:53:58.899Z,4.37
2022-11-18T21:56:29.392Z,3.03
2022-11-18T21:58:56.955Z,2.13
2022-11-18T22:01:25.837Z,2.37
2022-11-18T22:03:55.741Z,2.80
2022-11-18T22:06:24.292Z,2.80
2022-11-18T22:08:51.883Z,2.67
2022-11-18T22:11:20.492Z,2.50
2022-11-18T22:13:47.679Z,2.47
2022-11-18T22:16:15.953Z,2.20
2022-11-18T22:18:44.072Z,2.27
2022-11-18T22:21:15.851Z,3.00
2022-11-18T22:23:43.235Z,2.57
2022-11-18T22:26:11.824Z,2.60
2022-11-18T22:28:39.082Z,2.83
2022-11-18T22:31:06.246Z,2.90
2022-11-18T22:33:33.851Z,2.83
2022-11-18T22:36:11.303Z,3.00
2022-11-18T22:38:38.458Z,3.00
2022-11-18T22:41:30.237Z,3.03
2022-11-18T22:43:59.457Z,3.83
2022-11-18T22:46:29.764Z,3.43
2022-11-18T22:48:57.291Z,3.57
2022-11-18T22:51:24.480Z,3.43
2022-11-18T22:54:00.156Z,3.27
2022-11-18T22:56:38.717Z,3.73
2022-11-18T22:59:05.810Z,4.07
2022-11-18T23:01:32.939Z,4.30
2022-11-18T23:04:00.023Z,4.80
2022-11-18T23:06:27.110Z,5.17
2022-11-18T23:08:54.234Z,5.10
2022-11-18T23:11:39.805Z,5.57
2022-11-18T23:14:07.927Z,5.43
2022-11-18T23:16:39.276Z,6.23
2022-11-18T23:19:07.531Z,6.30
2022-11-18T23:21:34.601Z,5.67
2022-11-18T23:24:01.757Z,5.67
2022-11-18T23:26:29.041Z,5.30
2022-11-18T23:28:56.555Z,5.00
2022-11-18T23:31:24.864Z,5.60
2022-11-18T23:33:52.101Z,5.57
2022-11-18T23:36:19.980Z,6.20
2022-11-18T23:38:47.333Z,6.97
2022-11-18T23:41:15.749Z,6.50
2022-11-18T23:43:43.137Z,6.63
2022-11-18T23:46:10.455Z,6.40
2022-11-18T23:48:38.590Z,7.40
2022-11-18T23:51:07.512Z,7.27
2022-11-18T23:53:35.152Z,7.03
2022-11-18T23:56:03.354Z,8.37
2022-11-18T23:58:30.684Z,6.67
